Terminal Aerodrome Forecast
Issued by NWS

Home | Current Version | Previous Version | Text Only | Print | Product List | Glossary On
Versions: 1 2 3 4 5 6 7 8 9 10 11 12 13 14 15 16
000
FTUS43 KAPX 191120
TAFTVC
TAF
KTVC 191120Z 1912/2012 11008KT P6SM SCT250 WS015/13030KT
     FM191400 11011G20KT P6SM SCT120 BKN200
     FM192100 11012G21KT P6SM VCSH SCT040 OVC080
     FM200000 10009KT 6SM -RA BR SCT025 OVC040
     FM200400 09008KT 5SM -RA BR SCT012 OVC022=

USA.gov is the U.S. government's official web portal to all federal, state and local government web resources and services.